Skip to main content

NOAA/GLERL Met Station at Muskegon Pier Light, MI

Previous 5 days (top of hour only)
See also Previous 3 Hours (2 minute increments)
Jump down to Data
Switch to [English][Metric]
Zoom: Click and drag, Pan: shift-click and drag, Unzoom: double-click, Unzoom All





Note: Speed = mean wind during 2-minute period at top of hour,
Gust = max wind during 2-minute period at top of hour,
Peak = max wind during entire hour.
• See also 5-day windrose plot


NOAA/GLERL Met Station at Muskegon Pier Light, MI

Previous 5 days (top of hour only)
See also Previous 3 Hours (2 minute increments)
Jump up to Graphs
Switch to [English][Metric]
                  Wind  Wind  Wind   Air   Dew   Rel     Sta
                   Spd   Gst   Dir  Temp    Pt   Hum    Pres
YYYY-MM-DD   EDT   m/s   m/s   deg     C     C     %      mb
2024-05-23 07:00   6.2   7.2   251  14.2  11.2  81.9  989.10
2024-05-23 06:00   7.3   8.4   255  14.3  11.0  80.1  988.60
2024-05-23 05:00   7.2   7.6   257  14.4  11.0  80.2  988.80
2024-05-23 04:00   4.9   5.7   235  13.7  10.9  83.1  988.80
2024-05-23 03:00   2.1   2.5   246  13.9  10.5  79.7  988.90
2024-05-23 02:00   5.3   5.8   285  15.1  10.1  71.9  988.70
2024-05-23 01:00   6.8   7.4   235  15.5   9.9  69.0  987.70
2024-05-23 00:00   6.5   7.0   239  15.3  10.4  72.4  987.20
2024-05-22 23:00   7.0   7.6   226  15.0  10.6  74.9  987.10
2024-05-22 22:00   7.3   8.2   215  15.0  10.8  76.1  986.70
2024-05-22 21:00   6.1   6.8   193  14.6  11.7  82.6  986.20
2024-05-22 20:00   7.2   7.8   193  14.8  12.1  83.7  985.50
2024-05-22 19:00   5.9   6.6   194  14.4  12.5  88.1  984.40
2024-05-22 18:00   6.4   7.4   182  14.6  12.6  87.4  985.10
2024-05-22 17:00   5.9   6.6   190  14.1  12.4  89.4  984.90
2024-05-22 16:00   6.9   7.5   188  13.8  12.4  91.4  985.10
2024-05-22 15:00   7.1   8.0   209  14.1  12.3  88.9  984.50
2024-05-22 14:00   6.8   7.7   195  13.4  12.3  93.0  984.40
2024-05-22 13:00   6.7   7.5   193  13.4  12.4  93.4  984.40
2024-05-22 12:00   7.6   8.7   193  13.5  12.5  93.7  983.90
2024-05-22 11:00   7.6   8.6   211  13.9  12.4  90.5  983.30
2024-05-22 10:00   6.2   7.2   209  13.6  12.7  94.6  982.80
2024-05-22 09:00   7.0   8.5   216  14.2  13.1  92.9  981.60
2024-05-22 08:00   6.3   7.0   200  14.9  13.7  92.9  980.50
2024-05-22 07:00   7.5   8.2   185  15.2  14.1  92.9  980.30
2024-05-22 06:00   8.1   8.9   197  15.3  14.0  91.8  979.50
2024-05-22 05:00  10.8  12.1   190  18.8  14.5  75.8  978.60
2024-05-22 04:00  12.1  12.8   186  19.8  16.0  78.6  978.00
2024-05-22 03:00  12.0  13.0   164  19.4  16.8  84.8  978.10
2024-05-22 02:00  12.2  13.0   153  20.1  16.9  81.9  978.20
2024-05-22 01:00  12.6  14.1   156  21.1  16.9  76.9  978.90
2024-05-22 00:00  12.0  12.5   145  21.2  17.4  78.4  979.10
2024-05-21 23:00   8.6   9.1   149  22.5  17.0  70.7  980.10
2024-05-21 22:00  11.4  13.0   144  27.1  16.7  53.0  979.10
2024-05-21 21:00   8.8  10.3   140  26.2  17.5  58.9  979.20
2024-05-21 20:00   8.9   9.1   141  25.5  17.6  61.6  980.10
2024-05-21 19:00   8.2   8.3   147  23.2  17.6  71.0  981.00
2024-05-21 18:00   7.2   7.3   143  23.5  18.2  71.8  982.80
2024-05-21 17:00   5.1   5.3   145  23.5  18.5  73.4  984.00
2024-05-21 16:00   5.6   5.7   139  25.1  17.8  63.8  984.80
2024-05-21 15:00   4.8   5.0   152  22.0  19.1  83.9  986.20
2024-05-21 14:00   3.4   3.7   154  22.3  17.5  74.3  986.40
2024-05-21 13:00   3.2   4.3    60  20.5  17.8  84.3  987.60
2024-05-21 12:00   5.0   6.5    56  18.1  17.0  93.2  987.80
2024-05-21 11:00   2.9   3.5   143  15.0  15.0 100.1  987.80
2024-05-21 10:00   2.9   4.1    95  14.8  14.8 100.1  988.70
2024-05-21 09:00   2.4   3.0    92  13.8  13.8 100.1  988.50
2024-05-21 08:00   1.3   1.6    52  12.8  12.8 100.1  988.90
2024-05-21 07:00   0.7   0.9   335  12.4  12.4 100.1  988.60
2024-05-21 06:00   3.8   4.1   316  12.1  12.1 100.1  988.50
2024-05-21 05:00   2.5   2.9   258  12.3  12.4 100.1  988.30
2024-05-21 04:00   3.2   3.8   223  11.8  11.8 100.1  988.30
2024-05-21 03:00   3.6   4.0   224  11.8  11.8 100.1  988.50
2024-05-21 02:00   3.2   3.4   300  12.6  12.7 100.1  988.20
2024-05-21 01:00   5.3   5.5   287  12.4  12.4 100.1  988.30
2024-05-21 00:00   5.4   5.9   295  11.6  11.6 100.1  987.60
2024-05-20 23:00   6.6   7.3   264  13.7  13.7  99.9  987.20
2024-05-20 22:00   7.6   8.4   269  13.9  13.9 100.1  986.60
2024-05-20 21:00   4.4   5.1   206  15.9  15.9 100.1  985.90
2024-05-20 20:00   2.2   2.9   101  18.6  17.6  94.0  985.60
2024-05-20 19:00   3.4   3.7    81  17.2  17.0  99.0  985.60
2024-05-20 18:00   8.4   8.8   315  14.2  14.2 100.1  987.00
2024-05-20 17:00   6.1   6.8   142  25.4  17.4  61.0  986.10
2024-05-20 16:00   3.7   4.8   110  25.1  17.8  63.9  986.70
2024-05-20 15:00   4.5   5.7   138  24.4  16.4  60.7  987.80
2024-05-20 14:00   6.1   6.9    80  21.7  15.3  66.8  988.40
2024-05-20 13:00   6.4   8.1    69  17.8  13.8  77.4  988.70
2024-05-20 12:00   8.4  10.3    76  14.5  10.8  78.6  990.00
2024-05-20 11:00   3.3   4.5    47  13.7   9.6  76.0  992.20
2024-05-20 10:00   4.2   4.7    49  16.4   8.8  60.9  990.70
2024-05-20 09:00  10.9  13.1   283  15.6  10.0  69.3  991.80
2024-05-20 08:00   4.1   5.2    77  16.2  12.9  80.4  989.90
2024-05-20 07:00   5.6   6.8    81  15.0  11.4  78.9  989.40
2024-05-20 06:00   5.9   6.8    81  15.0   9.3  68.4  989.40
2024-05-20 05:00   5.3   6.6    75  14.5   8.0  64.8  989.80
2024-05-20 04:00   3.2   4.0    70  13.5   8.4  71.2  990.50
2024-05-20 03:00   2.8   3.3    43  13.4   9.2  75.5  990.60
2024-05-20 02:00   4.2   4.8   317  13.7  11.8  88.2  991.10
2024-05-20 01:00   2.1   2.3   300  14.3  11.8  84.4  991.10
2024-05-20 00:00   0.9   1.0    53  16.7   0.6  33.5  991.40
2024-05-19 23:00   1.2   1.3    36  17.9  -0.7  28.3  991.70
2024-05-19 22:00   1.2   1.2    10  18.4  -1.1  26.7  991.90
2024-05-19 21:00   1.9   2.3   338  17.1  11.7  70.5  991.90
2024-05-19 20:00   2.3   2.9   337  19.8   5.4  39.0  991.30
2024-05-19 19:00   7.1   7.5   310  16.1  10.9  71.2  991.80
2024-05-19 18:00   8.8   9.4   315  15.9  10.8  71.2  992.20
2024-05-19 17:00   7.6   8.6   311  15.6  11.3  75.8  992.20
2024-05-19 16:00   6.8   7.4   309  15.9  12.0  77.2  992.20
2024-05-19 15:00   8.9   9.6   316  15.5  12.0  80.0  992.20
2024-05-19 14:00   9.6  10.5   309  15.2  12.5  83.4  991.80
2024-05-19 13:00   8.1   8.9   314  15.5  12.5  82.2  991.90
2024-05-19 12:00   8.0   9.7   308  15.5  12.5  82.4  992.20
2024-05-19 11:00   8.5   9.1   311  16.1  12.5  79.1  991.60
2024-05-19 10:00   7.4   8.2   315  15.8  13.3  85.5  991.90
2024-05-19 09:00   7.1   7.8   312  16.0  14.1  88.2  991.10
2024-05-19 08:00   3.5   4.0   307  15.4  14.3  92.7  990.50
2024-05-19 07:00   7.2   7.9   294  15.0  13.5  90.8  990.00
2024-05-19 06:00   2.9   3.5   186  14.8  13.7  92.8  989.40
2024-05-19 05:00   6.3   7.0   174  15.8  14.6  91.9  988.50
2024-05-19 04:00   7.5   8.0   153  17.0  15.5  90.8  988.10
2024-05-19 03:00   7.4   8.0   161  18.1  15.7  86.2  987.90
2024-05-19 02:00   6.8   7.1   159  18.5  15.9  84.5  988.20
2024-05-19 01:00   7.3   7.7   154  19.2  16.0  81.7  987.80
2024-05-19 00:00   8.0   8.5   153  20.8  14.9  68.8  987.90
2024-05-18 23:00   5.9   6.2   148  22.0  13.9  59.9  987.80
2024-05-18 22:00   7.0   7.2   144  22.2  15.6  66.2  987.60
2024-05-18 21:00   7.6   7.8   146  22.0  17.0  73.2  987.30
2024-05-18 20:00   5.8   6.3   147  21.2  17.6  79.9  987.20